Saint Petersburg, Florida
Current Conditions -  °F | °C
As of 4:53 AM on Thursday 29 Jan 2015 (Local Time) from KSPG Reporting Station
Clear Clear  
Wind Chill: 11°   Ceiling: Unl
Heat Index: 11°   Visibility: 10mi
Dew Point:   Wind: 16mph
Humidity: 66%   Direction: 60°ENE
Pressure: 30.26"   Gusts: NA
Location:  27.77°N, 82.63°W
Report Text: KSPG 290953Z AUTO 06014KT 10SM CLR 11/05 A3026 RMK AO2 SLP247 T01110050
Loading
Personal Weather Stations






























Interactive Weather Map New forecast layout! Learn more

10-Day Weather Forecast

Advertisements
Track Severe Weather on mobile